»·PEaware :: AWE3717 KPHX-KLAX

AWE3717 :: KPHX-KLAX

FLIGHT INFORMATION

Flight Status: Arrived
Operator:
US Airways
More flights by this operator :: More flights under this callsign
Pilot: Kyle M. (9350)
Aircraft: AIRBUS A319
(A319)
More flights by this aircraft type
Origin: KPHX Phoenix Sky Harbor Intl
United States
Destination: KLAX Los Angeles Intl
United States
More flights between these airports :: More routes between these airports
Route: +KEENS2 MESSI ESTWD HLYWD1
File this flight plan on PilotEdge
Remarks: CptCanada - Youtube Livestreams!
Altitude:
(Current/Filed)
32,000ft
Speed:
(Current/Filed)
457kts
Departed: 15-Dec-18 12:31 PM
Arrived: 15-Dec-18 01:31 PM
Distance/Time
Traveled:
321nm/1:00
Distance/Time
To Go:
Arrived

Flight Plot

Page will automatically refresh every two minutes.

Flight plan parsing failed; only flown route is shown


Map Options




Map Legend


Flown Route
Filed Route
Departure Airport
Arrival Airport
Navaid (VOR, NDB)
Fix

Horizontal Profiles

Position Reports

Time Latitude Longitude Heading Altitude Ground
Speed
15-Dec-18 11:50 33.437257 -112.002409 91 1140ft 0kts
15-Dec-18 11:51 33.437257 -112.002409 91 1140ft 0kts
15-Dec-18 11:52 33.437257 -112.002409 91 1140ft 0kts
15-Dec-18 11:53 33.437257 -112.002409 91 1140ft 0kts
15-Dec-18 11:54 33.437257 -112.002409 91 1140ft 0kts
15-Dec-18 11:55 33.437257 -112.002409 91 1140ft 0kts
15-Dec-18 11:56 33.437257 -112.002409 91 1140ft 0kts
15-Dec-18 11:57 33.437257 -112.002409 91 1140ft 0kts
15-Dec-18 11:58 33.437257 -112.002409 91 1140ft 0kts
15-Dec-18 11:59 33.437257 -112.002409 91 1140ft 0kts
15-Dec-18 12:00 33.437257 -112.002409 91 1140ft 0kts
15-Dec-18 12:01 33.437257 -112.002409 91 1140ft 0kts
15-Dec-18 12:02 33.437257 -112.002409 91 1140ft 0kts
15-Dec-18 12:03 33.437257 -112.002409 91 1140ft 0kts
15-Dec-18 12:04 33.437257 -112.002409 91 1140ft 0kts
15-Dec-18 12:05 33.437257 -112.002409 91 1140ft 0kts
15-Dec-18 12:06 33.437257 -112.002409 91 1140ft 0kts
15-Dec-18 12:07 33.437257 -112.002409 91 1140ft 0kts
15-Dec-18 12:08 33.437257 -112.002409 91 1140ft 0kts
15-Dec-18 12:09 33.437257 -112.002409 91 1140ft 0kts
15-Dec-18 12:10 33.437257 -112.002409 91 1140ft 0kts
15-Dec-18 12:11 33.437257 -112.002409 91 1140ft 0kts
15-Dec-18 12:12 33.437257 -112.002409 91 1140ft 0kts
15-Dec-18 12:13 33.437257 -112.002409 91 1140ft 0kts
15-Dec-18 12:14 33.437257 -112.002409 91 1140ft 0kts
15-Dec-18 12:15 33.437257 -112.002409 91 1140ft 0kts
15-Dec-18 12:16 33.437257 -112.002409 91 1140ft 0kts
15-Dec-18 12:17 33.437257 -112.002409 91 1140ft 0kts
15-Dec-18 12:19 33.437257 -112.002409 91 1140ft 0kts
15-Dec-18 12:20 33.437257 -112.002409 91 1140ft 0kts
15-Dec-18 12:21 33.437257 -112.002410 91 1140ft 0kts
15-Dec-18 12:22 33.437264 -112.002591 91 1140ft 2kts
15-Dec-18 12:23 33.437087 -112.003037 358 1140ft 1kts
15-Dec-18 12:24 33.437027 -112.003031 359 1140ft 0kts
15-Dec-18 12:25 33.437027 -112.003031 359 1140ft 0kts
15-Dec-18 12:26 33.438838 -112.003062 336 1140ft 13kts
15-Dec-18 12:27 33.438982 -112.008020 269 1140ft 18kts
15-Dec-18 12:28 33.438982 -112.014611 269 1140ft 20kts
15-Dec-18 12:29 33.439002 -112.021611 269 1140ft 21kts
15-Dec-18 12:30 33.440048 -112.026708 1 1140ft 13kts
15-Dec-18 12:31 33.440838 -112.006737 90 1141ft 165kts
15-Dec-18 12:32 33.439583 -111.948788 94 3574ft 187kts
15-Dec-18 12:33 33.434862 -111.876552 102 5936ft 240kts
15-Dec-18 12:34 33.378814 -111.848289 204 9124ft 251kts
15-Dec-18 12:35 33.354963 -111.921896 271 12317ft 274kts
15-Dec-18 12:36 33.364744 -112.022640 275 13518ft 343kts
15-Dec-18 12:37 33.383409 -112.145566 277 14855ft 396kts
15-Dec-18 12:38 33.403114 -112.277426 277 17086ft 410kts
15-Dec-18 12:39 33.423105 -112.413682 276 18919ft 426kts
15-Dec-18 12:40 33.443815 -112.556915 276 20340ft 448kts
15-Dec-18 12:40 33.451355 -112.682198 268 21467ft 462kts
15-Dec-18 12:42 33.473993 -112.861816 291 23063ft 484kts
15-Dec-18 12:42 33.517778 -112.985853 292 24514ft 484kts
15-Dec-18 12:44 33.576075 -113.151404 287 28420ft 435kts
15-Dec-18 12:44 33.612900 -113.257843 286 30003ft 399kts
15-Dec-18 12:45 33.655210 -113.380825 286 30018ft 399kts
15-Dec-18 12:46 33.697532 -113.503778 286 30018ft 399kts
15-Dec-18 12:47 33.739757 -113.626997 286 30010ft 406kts
15-Dec-18 12:48 33.781926 -113.750382 286 30018ft 398kts
15-Dec-18 12:49 33.823741 -113.873220 286 30060ft 399kts
15-Dec-18 12:50 33.865611 -113.996516 286 30186ft 398kts
15-Dec-18 12:51 33.904574 -114.120394 280 30205ft 393kts
15-Dec-18 12:52 33.927959 -114.248137 276 30208ft 390kts
15-Dec-18 12:53 33.949652 -114.376342 276 30208ft 391kts
15-Dec-18 12:54 33.971080 -114.503872 276 30137ft 391kts
15-Dec-18 12:55 33.992675 -114.633170 276 30080ft 392kts
15-Dec-18 12:56 34.013685 -114.760083 275 30116ft 396kts
15-Dec-18 12:57 34.035920 -114.895488 276 30198ft 429kts
15-Dec-18 12:58 34.059259 -115.037863 276 30208ft 435kts
15-Dec-18 12:59 34.082432 -115.180737 276 30208ft 435kts
15-Dec-18 13:00 34.105617 -115.323842 276 30260ft 434kts
15-Dec-18 13:01 34.128774 -115.466391 276 30283ft 440kts
15-Dec-18 13:02 34.151507 -115.609625 276 30289ft 434kts
15-Dec-18 13:03 34.157566 -115.753020 261 30289ft 426kts
15-Dec-18 13:04 34.144227 -115.894539 259 30289ft 425kts
15-Dec-18 13:05 34.130462 -116.036135 259 30289ft 426kts
15-Dec-18 13:06 34.116546 -116.177563 259 30289ft 426kts
15-Dec-18 13:07 34.102317 -116.319411 259 30289ft 426kts
15-Dec-18 13:08 34.087088 -116.461540 259 30293ft 431kts
15-Dec-18 13:09 34.072265 -116.599117 259 30241ft 407kts
15-Dec-18 13:10 34.060156 -116.730572 259 26572ft 435kts
15-Dec-18 13:11 34.046102 -116.879909 261 22269ft 462kts
15-Dec-18 13:12 34.027300 -117.028430 258 18548ft 420kts
15-Dec-18 13:13 34.012318 -117.154102 259 16217ft 338kts
15-Dec-18 13:14 33.999767 -117.258912 259 14615ft 312kts
15-Dec-18 13:15 33.987636 -117.361033 259 12757ft 304kts
15-Dec-18 13:16 33.976080 -117.460149 262 11988ft 297kts
15-Dec-18 13:17 33.988636 -117.555381 282 11011ft 276kts
15-Dec-18 13:18 34.008813 -117.641253 282 10277ft 265kts
15-Dec-18 13:19 34.019466 -117.726842 261 9297ft 257kts
15-Dec-18 13:20 34.010984 -117.813450 263 8407ft 270kts
15-Dec-18 13:21 34.002453 -117.901610 263 7112ft 260kts
15-Dec-18 13:22 33.994261 -117.985282 262 6057ft 244kts
15-Dec-18 13:23 33.986216 -118.065862 263 4822ft 242kts
15-Dec-18 13:24 33.978592 -118.144420 263 4108ft 218kts
15-Dec-18 13:25 33.972164 -118.209370 265 3292ft 179kts
15-Dec-18 13:26 33.966473 -118.263753 263 2367ft 138kts
15-Dec-18 13:27 33.961717 -118.309669 262 1698ft 137kts
15-Dec-18 13:28 33.956907 -118.354480 262 984ft 136kts
15-Dec-18 13:29 33.952338 -118.399454 263 206ft 134kts
15-Dec-18 13:30 33.949926 -118.418343 237 136ft 18kts
15-Dec-18 13:31 33.948099 -118.421295 233 136ft 20kts
15-Dec-18 13:32 33.947133 -118.419415 83 136ft 16kts
15-Dec-18 13:33 33.947890 -118.413368 82 136ft 19kts
15-Dec-18 13:34 33.948598 -118.406463 83 136ft 21kts
15-Dec-18 13:35 33.947209 -118.402312 86 136ft 8kts

Navigation Log

Ident Type
Flight plan parsing failed, navigation log unavailable